sensor_id;sensor_type;location;lat;lon;timestamp;P1;durP1;ratioP1;P2;durP2;ratioP2
11082;SDS011;5595;50.186;8.468;2024-02-04T00:01:04;0.20;;;0.20;;
11082;SDS011;5595;50.186;8.468;2024-02-04T00:03:30;0.33;;;0.20;;
11082;SDS011;5595;50.186;8.468;2024-02-04T00:05:58;0.10;;;0.10;;
11082;SDS011;5595;50.186;8.468;2024-02-04T00:08:25;0.20;;;0.20;;
11082;SDS011;5595;50.186;8.468;2024-02-04T00:10:52;0.17;;;0.13;;
11082;SDS011;5595;50.186;8.468;2024-02-04T00:13:19;0.20;;;0.17;;
11082;SDS011;5595;50.186;8.468;2024-02-04T00:15:46;0.30;;;0.30;;
11082;SDS011;5595;50.186;8.468;2024-02-04T00:18:13;0.10;;;0.10;;
11082;SDS011;5595;50.186;8.468;2024-02-04T00:20:39;0.20;;;0.13;;
11082;SDS011;5595;50.186;8.468;2024-02-04T00:23:07;0.30;;;0.20;;
11082;SDS011;5595;50.186;8.468;2024-02-04T00:25:34;0.40;;;0.10;;
11082;SDS011;5595;50.186;8.468;2024-02-04T00:28:01;0.20;;;0.20;;
11082;SDS011;5595;50.186;8.468;2024-02-04T00:30:31;0.20;;;0.20;;
11082;SDS011;5595;50.186;8.468;2024-02-04T00:32:57;2.20;;;0.20;;
11082;SDS011;5595;50.186;8.468;2024-02-04T00:35:27;0.10;;;0.10;;
11082;SDS011;5595;50.186;8.468;2024-02-04T00:37:54;0.20;;;0.20;;
11082;SDS011;5595;50.186;8.468;2024-02-04T00:40:23;2.77;;;0.20;;
11082;SDS011;5595;50.186;8.468;2024-02-04T00:42:51;0.20;;;0.20;;
11082;SDS011;5595;50.186;8.468;2024-02-04T00:45:18;0.20;;;0.10;;
11082;SDS011;5595;50.186;8.468;2024-02-04T00:47:45;0.10;;;0.10;;
11082;SDS011;5595;50.186;8.468;2024-02-04T00:50:11;0.13;;;0.13;;
11082;SDS011;5595;50.186;8.468;2024-02-04T00:52:38;0.30;;;0.30;;
11082;SDS011;5595;50.186;8.468;2024-02-04T00:55:05;0.67;;;0.20;;
11082;SDS011;5595;50.186;8.468;2024-02-04T00:57:34;0.13;;;0.13;;
11082;SDS011;5595;50.186;8.468;2024-02-04T01:00:01;0.10;;;0.10;;
11082;SDS011;5595;50.186;8.468;2024-02-04T01:02:28;0.17;;;0.10;;
11082;SDS011;5595;50.186;8.468;2024-02-04T01:04:55;0.10;;;0.10;;
11082;SDS011;5595;50.186;8.468;2024-02-04T01:07:22;0.10;;;0.10;;
11082;SDS011;5595;50.186;8.468;2024-02-04T01:09:49;0.20;;;0.10;;
11082;SDS011;5595;50.186;8.468;2024-02-04T01:12:15;0.20;;;0.10;;
11082;SDS011;5595;50.186;8.468;2024-02-04T01:14:43;0.93;;;0.20;;
11082;SDS011;5595;50.186;8.468;2024-02-04T01:17:10;1.43;;;0.20;;
11082;SDS011;5595;50.186;8.468;2024-02-04T01:19:37;0.20;;;0.20;;
11082;SDS011;5595;50.186;8.468;2024-02-04T01:22:04;0.10;;;0.10;;
11082;SDS011;5595;50.186;8.468;2024-02-04T01:24:31;0.17;;;0.17;;
11082;SDS011;5595;50.186;8.468;2024-02-04T01:26:58;0.10;;;0.10;;
11082;SDS011;5595;50.186;8.468;2024-02-04T01:29:25;0.20;;;0.20;;
11082;SDS011;5595;50.186;8.468;2024-02-04T01:31:53;0.20;;;0.20;;
11082;SDS011;5595;50.186;8.468;2024-02-04T01:34:20;1.13;;;0.30;;
11082;SDS011;5595;50.186;8.468;2024-02-04T01:36:46;0.50;;;0.20;;
11082;SDS011;5595;50.186;8.468;2024-02-04T01:39:13;0.20;;;0.20;;
11082;SDS011;5595;50.186;8.468;2024-02-04T01:41:40;0.33;;;0.10;;
11082;SDS011;5595;50.186;8.468;2024-02-04T01:44:10;0.27;;;0.10;;
11082;SDS011;5595;50.186;8.468;2024-02-04T01:46:37;0.10;;;0.10;;
11082;SDS011;5595;50.186;8.468;2024-02-04T01:49:05;0.20;;;0.20;;
11082;SDS011;5595;50.186;8.468;2024-02-04T01:51:31;0.20;;;0.10;;
11082;SDS011;5595;50.186;8.468;2024-02-04T01:53:58;0.33;;;0.20;;
11082;SDS011;5595;50.186;8.468;2024-02-04T01:56:26;0.40;;;0.10;;
11082;SDS011;5595;50.186;8.468;2024-02-04T01:58:53;0.10;;;0.10;;
11082;SDS011;5595;50.186;8.468;2024-02-04T02:01:20;0.17;;;0.17;;
11082;SDS011;5595;50.186;8.468;2024-02-04T02:03:48;0.37;;;0.10;;
11082;SDS011;5595;50.186;8.468;2024-02-04T02:06:16;0.10;;;0.10;;
11082;SDS011;5595;50.186;8.468;2024-02-04T02:08:43;0.50;;;0.10;;
11082;SDS011;5595;50.186;8.468;2024-02-04T02:11:14;1.20;;;0.20;;
11082;SDS011;5595;50.186;8.468;2024-02-04T02:13:47;0.10;;;0.10;;
11082;SDS011;5595;50.186;8.468;2024-02-04T02:16:18;0.10;;;0.10;;
11082;SDS011;5595;50.186;8.468;2024-02-04T02:18:48;0.10;;;0.10;;
11082;SDS011;5595;50.186;8.468;2024-02-04T02:21:23;0.10;;;0.10;;
11082;SDS011;5595;50.186;8.468;2024-02-04T02:24:09;0.10;;;0.10;;
11082;SDS011;5595;50.186;8.468;2024-02-04T02:26:39;0.10;;;0.10;;
11082;SDS011;5595;50.186;8.468;2024-02-04T02:29:07;0.10;;;0.10;;
11082;SDS011;5595;50.186;8.468;2024-02-04T02:31:34;0.73;;;0.10;;
11082;SDS011;5595;50.186;8.468;2024-02-04T02:34:02;0.43;;;0.13;;
11082;SDS011;5595;50.186;8.468;2024-02-04T02:36:29;0.10;;;0.10;;
11082;SDS011;5595;50.186;8.468;2024-02-04T02:39:02;0.20;;;0.20;;
11082;SDS011;5595;50.186;8.468;2024-02-04T02:41:35;0.20;;;0.20;;
11082;SDS011;5595;50.186;8.468;2024-02-04T02:44:05;0.20;;;0.20;;
11082;SDS011;5595;50.186;8.468;2024-02-04T02:46:35;1.70;;;0.20;;
11082;SDS011;5595;50.186;8.468;2024-02-04T02:49:02;0.20;;;0.20;;
11082;SDS011;5595;50.186;8.468;2024-02-04T02:51:29;0.20;;;0.10;;
11082;SDS011;5595;50.186;8.468;2024-02-04T02:53:56;0.10;;;0.10;;
11082;SDS011;5595;50.186;8.468;2024-02-04T02:56:23;0.20;;;0.10;;
11082;SDS011;5595;50.186;8.468;2024-02-04T02:58:49;0.10;;;0.10;;
11082;SDS011;5595;50.186;8.468;2024-02-04T03:01:18;0.20;;;0.20;;
11082;SDS011;5595;50.186;8.468;2024-02-04T03:03:44;0.10;;;0.10;;
11082;SDS011;5595;50.186;8.468;2024-02-04T03:06:11;0.10;;;0.10;;
11082;SDS011;5595;50.186;8.468;2024-02-04T03:08:38;0.30;;;0.30;;
11082;SDS011;5595;50.186;8.468;2024-02-04T03:11:05;0.47;;;0.20;;
11082;SDS011;5595;50.186;8.468;2024-02-04T03:13:31;0.10;;;0.10;;
11082;SDS011;5595;50.186;8.468;2024-02-04T03:15:58;0.10;;;0.10;;
11082;SDS011;5595;50.186;8.468;2024-02-04T03:18:26;0.10;;;0.10;;
11082;SDS011;5595;50.186;8.468;2024-02-04T03:20:53;0.20;;;0.20;;
11082;SDS011;5595;50.186;8.468;2024-02-04T03:23:20;0.13;;;0.13;;
11082;SDS011;5595;50.186;8.468;2024-02-04T03:25:46;0.53;;;0.40;;
11082;SDS011;5595;50.186;8.468;2024-02-04T03:28:13;0.20;;;0.20;;
11082;SDS011;5595;50.186;8.468;2024-02-04T03:30:40;0.30;;;0.20;;
11082;SDS011;5595;50.186;8.468;2024-02-04T03:33:06;0.20;;;0.20;;
11082;SDS011;5595;50.186;8.468;2024-02-04T03:35:35;0.30;;;0.20;;
11082;SDS011;5595;50.186;8.468;2024-02-04T03:38:02;0.20;;;0.20;;
11082;SDS011;5595;50.186;8.468;2024-02-04T03:40:29;0.30;;;0.30;;
11082;SDS011;5595;50.186;8.468;2024-02-04T03:42:56;0.20;;;0.20;;
11082;SDS011;5595;50.186;8.468;2024-02-04T03:45:22;0.20;;;0.20;;
11082;SDS011;5595;50.186;8.468;2024-02-04T03:47:49;0.20;;;0.20;;
11082;SDS011;5595;50.186;8.468;2024-02-04T03:50:16;0.20;;;0.20;;
11082;SDS011;5595;50.186;8.468;2024-02-04T03:52:44;0.20;;;0.20;;
11082;SDS011;5595;50.186;8.468;2024-02-04T03:55:11;0.50;;;0.27;;
11082;SDS011;5595;50.186;8.468;2024-02-04T03:57:38;0.40;;;0.40;;
11082;SDS011;5595;50.186;8.468;2024-02-04T04:00:05;0.20;;;0.20;;
11082;SDS011;5595;50.186;8.468;2024-02-04T04:02:35;0.20;;;0.20;;
11082;SDS011;5595;50.186;8.468;2024-02-04T04:05:02;0.57;;;0.20;;
11082;SDS011;5595;50.186;8.468;2024-02-04T04:07:29;0.47;;;0.20;;
11082;SDS011;5595;50.186;8.468;2024-02-04T04:09:57;0.13;;;0.13;;
11082;SDS011;5595;50.186;8.468;2024-02-04T04:12:24;0.20;;;0.20;;
11082;SDS011;5595;50.186;8.468;2024-02-04T04:14:50;0.20;;;0.20;;
11082;SDS011;5595;50.186;8.468;2024-02-04T04:17:18;0.40;;;0.20;;
11082;SDS011;5595;50.186;8.468;2024-02-04T04:19:45;0.20;;;0.20;;
11082;SDS011;5595;50.186;8.468;2024-02-04T04:22:11;0.20;;;0.20;;
11082;SDS011;5595;50.186;8.468;2024-02-04T04:24:38;0.40;;;0.20;;
11082;SDS011;5595;50.186;8.468;2024-02-04T04:27:06;0.20;;;0.20;;
11082;SDS011;5595;50.186;8.468;2024-02-04T04:29:33;0.20;;;0.10;;
11082;SDS011;5595;50.186;8.468;2024-02-04T04:31:59;0.10;;;0.10;;
11082;SDS011;5595;50.186;8.468;2024-02-04T04:34:26;0.20;;;0.20;;
11082;SDS011;5595;50.186;8.468;2024-02-04T04:36:53;0.20;;;0.20;;
11082;SDS011;5595;50.186;8.468;2024-02-04T04:39:20;0.10;;;0.10;;
11082;SDS011;5595;50.186;8.468;2024-02-04T04:41:46;0.20;;;0.20;;
11082;SDS011;5595;50.186;8.468;2024-02-04T04:44:14;0.20;;;0.20;;
11082;SDS011;5595;50.186;8.468;2024-02-04T04:46:41;0.20;;;0.20;;
11082;SDS011;5595;50.186;8.468;2024-02-04T04:49:09;0.27;;;0.20;;
11082;SDS011;5595;50.186;8.468;2024-02-04T04:51:36;0.30;;;0.30;;
11082;SDS011;5595;50.186;8.468;2024-02-04T04:54:05;0.20;;;0.20;;
11082;SDS011;5595;50.186;8.468;2024-02-04T04:56:37;0.20;;;0.20;;
11082;SDS011;5595;50.186;8.468;2024-02-04T04:59:04;0.30;;;0.30;;
11082;SDS011;5595;50.186;8.468;2024-02-04T05:01:33;1.07;;;0.40;;
11082;SDS011;5595;50.186;8.468;2024-02-04T05:04:00;0.40;;;0.40;;
11082;SDS011;5595;50.186;8.468;2024-02-04T05:06:27;0.20;;;0.20;;
11082;SDS011;5595;50.186;8.468;2024-02-04T05:08:53;1.30;;;0.30;;
11082;SDS011;5595;50.186;8.468;2024-02-04T05:11:20;1.70;;;0.30;;
11082;SDS011;5595;50.186;8.468;2024-02-04T05:13:47;0.40;;;0.33;;
11082;SDS011;5595;50.186;8.468;2024-02-04T05:16:14;0.50;;;0.50;;
11082;SDS011;5595;50.186;8.468;2024-02-04T05:18:42;0.30;;;0.30;;
11082;SDS011;5595;50.186;8.468;2024-02-04T05:21:08;0.20;;;0.20;;
11082;SDS011;5595;50.186;8.468;2024-02-04T05:23:36;0.73;;;0.40;;
11082;SDS011;5595;50.186;8.468;2024-02-04T05:26:03;0.40;;;0.40;;
11082;SDS011;5595;50.186;8.468;2024-02-04T05:28:30;0.37;;;0.37;;
11082;SDS011;5595;50.186;8.468;2024-02-04T05:30:57;0.43;;;0.43;;
11082;SDS011;5595;50.186;8.468;2024-02-04T05:33:24;0.40;;;0.40;;
11082;SDS011;5595;50.186;8.468;2024-02-04T05:35:52;0.40;;;0.40;;
11082;SDS011;5595;50.186;8.468;2024-02-04T05:38:19;0.30;;;0.30;;
11082;SDS011;5595;50.186;8.468;2024-02-04T05:40:47;0.30;;;0.30;;
11082;SDS011;5595;50.186;8.468;2024-02-04T05:43:13;0.17;;;0.17;;
11082;SDS011;5595;50.186;8.468;2024-02-04T05:45:41;0.20;;;0.20;;
11082;SDS011;5595;50.186;8.468;2024-02-04T05:48:08;0.30;;;0.20;;
11082;SDS011;5595;50.186;8.468;2024-02-04T05:50:35;0.20;;;0.20;;
11082;SDS011;5595;50.186;8.468;2024-02-04T05:53:06;0.30;;;0.30;;
11082;SDS011;5595;50.186;8.468;2024-02-04T05:55:32;1.40;;;0.33;;
11082;SDS011;5595;50.186;8.468;2024-02-04T05:57:59;0.40;;;0.40;;
11082;SDS011;5595;50.186;8.468;2024-02-04T06:00:26;0.33;;;0.30;;
11082;SDS011;5595;50.186;8.468;2024-02-04T06:02:52;0.30;;;0.30;;
11082;SDS011;5595;50.186;8.468;2024-02-04T06:05:19;0.20;;;0.20;;
11082;SDS011;5595;50.186;8.468;2024-02-04T06:07:46;0.40;;;0.30;;
11082;SDS011;5595;50.186;8.468;2024-02-04T06:10:14;0.10;;;0.10;;
11082;SDS011;5595;50.186;8.468;2024-02-04T06:12:43;0.30;;;0.30;;
11082;SDS011;5595;50.186;8.468;2024-02-04T06:15:11;0.20;;;0.20;;
11082;SDS011;5595;50.186;8.468;2024-02-04T06:17:39;0.30;;;0.30;;
11082;SDS011;5595;50.186;8.468;2024-02-04T06:20:06;0.20;;;0.20;;
11082;SDS011;5595;50.186;8.468;2024-02-04T06:22:33;0.97;;;0.20;;
11082;SDS011;5595;50.186;8.468;2024-02-04T06:25:00;0.20;;;0.20;;
11082;SDS011;5595;50.186;8.468;2024-02-04T06:27:29;0.10;;;0.10;;
11082;SDS011;5595;50.186;8.468;2024-02-04T06:29:55;0.20;;;0.20;;
11082;SDS011;5595;50.186;8.468;2024-02-04T06:32:22;0.60;;;0.30;;
11082;SDS011;5595;50.186;8.468;2024-02-04T06:34:49;0.20;;;0.20;;
11082;SDS011;5595;50.186;8.468;2024-02-04T06:37:18;0.20;;;0.20;;
11082;SDS011;5595;50.186;8.468;2024-02-04T06:39:45;0.20;;;0.20;;
11082;SDS011;5595;50.186;8.468;2024-02-04T06:42:12;0.70;;;0.20;;
11082;SDS011;5595;50.186;8.468;2024-02-04T06:44:41;0.37;;;0.10;;
11082;SDS011;5595;50.186;8.468;2024-02-04T06:47:09;0.40;;;0.30;;
11082;SDS011;5595;50.186;8.468;2024-02-04T06:49:37;0.20;;;0.10;;
11082;SDS011;5595;50.186;8.468;2024-02-04T06:52:04;0.20;;;0.20;;
11082;SDS011;5595;50.186;8.468;2024-02-04T06:54:31;1.67;;;0.30;;
11082;SDS011;5595;50.186;8.468;2024-02-04T06:56:58;0.30;;;0.10;;
11082;SDS011;5595;50.186;8.468;2024-02-04T06:59:24;0.10;;;0.10;;
11082;SDS011;5595;50.186;8.468;2024-02-04T07:01:52;0.20;;;0.20;;
11082;SDS011;5595;50.186;8.468;2024-02-04T07:04:19;0.30;;;0.30;;
11082;SDS011;5595;50.186;8.468;2024-02-04T07:06:49;0.10;;;0.10;;
11082;SDS011;5595;50.186;8.468;2024-02-04T07:09:15;0.10;;;0.10;;
11082;SDS011;5595;50.186;8.468;2024-02-04T07:11:42;0.13;;;0.10;;
11082;SDS011;5595;50.186;8.468;2024-02-04T07:14:09;0.00;;;0.00;;
11082;SDS011;5595;50.186;8.468;2024-02-04T07:16:36;0.10;;;0.10;;
11082;SDS011;5595;50.186;8.468;2024-02-04T07:19:04;0.20;;;0.20;;
11082;SDS011;5595;50.186;8.468;2024-02-04T07:21:30;0.10;;;0.10;;
11082;SDS011;5595;50.186;8.468;2024-02-04T07:23:57;0.10;;;0.10;;
11082;SDS011;5595;50.186;8.468;2024-02-04T07:26:24;0.10;;;0.10;;
11082;SDS011;5595;50.186;8.468;2024-02-04T07:28:51;0.07;;;0.07;;
11082;SDS011;5595;50.186;8.468;2024-02-04T07:31:17;0.10;;;0.10;;
11082;SDS011;5595;50.186;8.468;2024-02-04T07:33:44;0.10;;;0.10;;
11082;SDS011;5595;50.186;8.468;2024-02-04T07:36:12;0.10;;;0.10;;
11082;SDS011;5595;50.186;8.468;2024-02-04T07:38:39;0.60;;;0.20;;
11082;SDS011;5595;50.186;8.468;2024-02-04T07:41:06;0.10;;;0.10;;
11082;SDS011;5595;50.186;8.468;2024-02-04T07:43:32;0.10;;;0.10;;
11082;SDS011;5595;50.186;8.468;2024-02-04T07:45:59;0.03;;;0.03;;
11082;SDS011;5595;50.186;8.468;2024-02-04T07:48:26;0.10;;;0.10;;
11082;SDS011;5595;50.186;8.468;2024-02-04T07:50:53;0.17;;;0.10;;
11082;SDS011;5595;50.186;8.468;2024-02-04T07:53:21;0.30;;;0.10;;
11082;SDS011;5595;50.186;8.468;2024-02-04T07:55:48;0.40;;;0.10;;
11082;SDS011;5595;50.186;8.468;2024-02-04T07:58:16;0.10;;;0.10;;
11082;SDS011;5595;50.186;8.468;2024-02-04T08:00:42;0.23;;;0.23;;
11082;SDS011;5595;50.186;8.468;2024-02-04T08:03:09;0.10;;;0.10;;
11082;SDS011;5595;50.186;8.468;2024-02-04T08:05:36;0.60;;;0.20;;
11082;SDS011;5595;50.186;8.468;2024-02-04T08:08:03;0.00;;;0.00;;
11082;SDS011;5595;50.186;8.468;2024-02-04T08:10:31;0.10;;;0.10;;
11082;SDS011;5595;50.186;8.468;2024-02-04T08:12:58;0.10;;;0.10;;
11082;SDS011;5595;50.186;8.468;2024-02-04T08:15:25;0.10;;;0.07;;
11082;SDS011;5595;50.186;8.468;2024-02-04T08:17:52;0.33;;;0.20;;
11082;SDS011;5595;50.186;8.468;2024-02-04T08:20:18;0.10;;;0.10;;
11082;SDS011;5595;50.186;8.468;2024-02-04T08:22:46;0.10;;;0.10;;
11082;SDS011;5595;50.186;8.468;2024-02-04T08:25:13;0.10;;;0.10;;
11082;SDS011;5595;50.186;8.468;2024-02-04T08:27:42;0.00;;;0.00;;
11082;SDS011;5595;50.186;8.468;2024-02-04T08:30:09;0.20;;;0.13;;
11082;SDS011;5595;50.186;8.468;2024-02-04T08:32:36;0.10;;;0.10;;
11082;SDS011;5595;50.186;8.468;2024-02-04T08:35:03;0.00;;;0.00;;
11082;SDS011;5595;50.186;8.468;2024-02-04T08:37:31;0.07;;;0.07;;
11082;SDS011;5595;50.186;8.468;2024-02-04T08:39:58;0.10;;;0.10;;
11082;SDS011;5595;50.186;8.468;2024-02-04T08:42:25;2.87;;;0.10;;
11082;SDS011;5595;50.186;8.468;2024-02-04T08:44:53;0.10;;;0.10;;
11082;SDS011;5595;50.186;8.468;2024-02-04T08:47:20;0.20;;;0.20;;
11082;SDS011;5595;50.186;8.468;2024-02-04T08:49:47;0.00;;;0.00;;
11082;SDS011;5595;50.186;8.468;2024-02-04T08:52:14;0.10;;;0.10;;
11082;SDS011;5595;50.186;8.468;2024-02-04T08:54:40;0.63;;;0.10;;
11082;SDS011;5595;50.186;8.468;2024-02-04T08:57:07;0.10;;;0.10;;
11082;SDS011;5595;50.186;8.468;2024-02-04T08:59:34;0.03;;;0.03;;
11082;SDS011;5595;50.186;8.468;2024-02-04T09:02:02;0.10;;;0.10;;
11082;SDS011;5595;50.186;8.468;2024-02-04T09:04:30;1.23;;;0.10;;
11082;SDS011;5595;50.186;8.468;2024-02-04T09:06:57;0.17;;;0.10;;
11082;SDS011;5595;50.186;8.468;2024-02-04T09:09:23;0.63;;;0.23;;
11082;SDS011;5595;50.186;8.468;2024-02-04T09:11:50;0.13;;;0.13;;
11082;SDS011;5595;50.186;8.468;2024-02-04T09:14:17;0.03;;;0.00;;
11082;SDS011;5595;50.186;8.468;2024-02-04T09:16:44;0.10;;;0.10;;
11082;SDS011;5595;50.186;8.468;2024-02-04T09:19:12;0.30;;;0.10;;
11082;SDS011;5595;50.186;8.468;2024-02-04T09:21:38;0.10;;;0.10;;
11082;SDS011;5595;50.186;8.468;2024-02-04T09:24:08;0.20;;;0.20;;
11082;SDS011;5595;50.186;8.468;2024-02-04T09:26:36;0.10;;;0.10;;
11082;SDS011;5595;50.186;8.468;2024-02-04T09:29:03;0.87;;;0.17;;
11082;SDS011;5595;50.186;8.468;2024-02-04T09:31:29;0.10;;;0.10;;
11082;SDS011;5595;50.186;8.468;2024-02-04T09:33:56;0.93;;;0.20;;
11082;SDS011;5595;50.186;8.468;2024-02-04T09:36:24;0.10;;;0.10;;
11082;SDS011;5595;50.186;8.468;2024-02-04T09:38:51;0.10;;;0.10;;
11082;SDS011;5595;50.186;8.468;2024-02-04T09:41:18;0.20;;;0.20;;
11082;SDS011;5595;50.186;8.468;2024-02-04T09:43:45;0.20;;;0.10;;
11082;SDS011;5595;50.186;8.468;2024-02-04T09:46:12;0.10;;;0.10;;
11082;SDS011;5595;50.186;8.468;2024-02-04T09:48:38;0.20;;;0.17;;
11082;SDS011;5595;50.186;8.468;2024-02-04T09:51:06;0.37;;;0.10;;
11082;SDS011;5595;50.186;8.468;2024-02-04T09:53:34;0.10;;;0.10;;
11082;SDS011;5595;50.186;8.468;2024-02-04T09:56:03;0.00;;;0.00;;
11082;SDS011;5595;50.186;8.468;2024-02-04T09:58:34;1.03;;;0.10;;
11082;SDS011;5595;50.186;8.468;2024-02-04T10:01:01;0.30;;;0.20;;
11082;SDS011;5595;50.186;8.468;2024-02-04T10:03:28;0.10;;;0.10;;
11082;SDS011;5595;50.186;8.468;2024-02-04T10:05:55;0.20;;;0.20;;
11082;SDS011;5595;50.186;8.468;2024-02-04T10:08:22;0.50;;;0.20;;
11082;SDS011;5595;50.186;8.468;2024-02-04T10:10:51;0.10;;;0.10;;
11082;SDS011;5595;50.186;8.468;2024-02-04T10:13:19;1.93;;;0.10;;
11082;SDS011;5595;50.186;8.468;2024-02-04T10:15:46;0.15;;;0.15;;
11082;SDS011;5595;50.186;8.468;2024-02-04T10:18:13;0.10;;;0.10;;
11082;SDS011;5595;50.186;8.468;2024-02-04T10:20:40;0.10;;;0.10;;
11082;SDS011;5595;50.186;8.468;2024-02-04T10:23:09;0.10;;;0.10;;
11082;SDS011;5595;50.186;8.468;2024-02-04T10:25:35;0.10;;;0.10;;
11082;SDS011;5595;50.186;8.468;2024-02-04T10:28:04;0.10;;;0.03;;
11082;SDS011;5595;50.186;8.468;2024-02-04T10:30:31;0.10;;;0.10;;
11082;SDS011;5595;50.186;8.468;2024-02-04T10:32:59;0.10;;;0.10;;
11082;SDS011;5595;50.186;8.468;2024-02-04T10:35:26;0.10;;;0.10;;
11082;SDS011;5595;50.186;8.468;2024-02-04T10:37:53;0.10;;;0.10;;
11082;SDS011;5595;50.186;8.468;2024-02-04T10:40:19;0.10;;;0.10;;
11082;SDS011;5595;50.186;8.468;2024-02-04T10:42:46;0.17;;;0.10;;
11082;SDS011;5595;50.186;8.468;2024-02-04T10:45:17;0.10;;;0.10;;
11082;SDS011;5595;50.186;8.468;2024-02-04T10:47:44;0.10;;;0.10;;
11082;SDS011;5595;50.186;8.468;2024-02-04T10:50:21;0.20;;;0.10;;
11082;SDS011;5595;50.186;8.468;2024-02-04T10:52:50;0.00;;;0.00;;
11082;SDS011;5595;50.186;8.468;2024-02-04T10:55:17;0.30;;;0.10;;
11082;SDS011;5595;50.186;8.468;2024-02-04T10:57:52;0.10;;;0.10;;
11082;SDS011;5595;50.186;8.468;2024-02-04T11:00:20;0.10;;;0.10;;
11082;SDS011;5595;50.186;8.468;2024-02-04T11:02:47;0.10;;;0.10;;
11082;SDS011;5595;50.186;8.468;2024-02-04T11:05:15;0.30;;;0.20;;
11082;SDS011;5595;50.186;8.468;2024-02-04T11:07:43;0.10;;;0.10;;
11082;SDS011;5595;50.186;8.468;2024-02-04T11:10:11;0.00;;;0.00;;
11082;SDS011;5595;50.186;8.468;2024-02-04T11:12:38;0.20;;;0.20;;
11082;SDS011;5595;50.186;8.468;2024-02-04T11:15:07;0.43;;;0.20;;
11082;SDS011;5595;50.186;8.468;2024-02-04T11:17:54;0.22;;;0.10;;
11082;SDS011;5595;50.186;8.468;2024-02-04T11:20:43;0.10;;;0.10;;
11082;SDS011;5595;50.186;8.468;2024-02-04T11:23:28;0.10;;;0.10;;
11082;SDS011;5595;50.186;8.468;2024-02-04T11:26:04;0.10;;;0.10;;
11082;SDS011;5595;50.186;8.468;2024-02-04T11:28:31;0.10;;;0.10;;
11082;SDS011;5595;50.186;8.468;2024-02-04T11:30:59;0.20;;;0.20;;
11082;SDS011;5595;50.186;8.468;2024-02-04T11:33:29;0.10;;;0.05;;
11082;SDS011;5595;50.186;8.468;2024-02-04T11:35:59;0.10;;;0.10;;
11082;SDS011;5595;50.186;8.468;2024-02-04T11:38:33;0.20;;;0.10;;
11082;SDS011;5595;50.186;8.468;2024-02-04T11:41:02;0.20;;;0.10;;
11082;SDS011;5595;50.186;8.468;2024-02-04T11:43:32;0.47;;;0.10;;
11082;SDS011;5595;50.186;8.468;2024-02-04T11:45:59;0.10;;;0.10;;
11082;SDS011;5595;50.186;8.468;2024-02-04T11:48:30;0.20;;;0.00;;
11082;SDS011;5595;50.186;8.468;2024-02-04T11:50:58;0.00;;;0.00;;
11082;SDS011;5595;50.186;8.468;2024-02-04T11:53:32;0.00;;;0.00;;
11082;SDS011;5595;50.186;8.468;2024-02-04T11:55:59;0.30;;;0.20;;
11082;SDS011;5595;50.186;8.468;2024-02-04T11:58:28;0.00;;;0.00;;
11082;SDS011;5595;50.186;8.468;2024-02-04T12:00:56;0.00;;;0.00;;
11082;SDS011;5595;50.186;8.468;2024-02-04T12:03:31;0.10;;;0.10;;
11082;SDS011;5595;50.186;8.468;2024-02-04T12:05:58;0.05;;;0.00;;
11082;SDS011;5595;50.186;8.468;2024-02-04T12:08:26;0.10;;;0.10;;
11082;SDS011;5595;50.186;8.468;2024-02-04T12:10:53;0.00;;;0.00;;
11082;SDS011;5595;50.186;8.468;2024-02-04T12:13:21;0.00;;;0.00;;
11082;SDS011;5595;50.186;8.468;2024-02-04T12:15:48;0.00;;;0.00;;
11082;SDS011;5595;50.186;8.468;2024-02-04T12:18:15;0.00;;;0.00;;
11082;SDS011;5595;50.186;8.468;2024-02-04T12:20:46;0.00;;;0.00;;
11082;SDS011;5595;50.186;8.468;2024-02-04T12:23:14;0.00;;;0.00;;
11082;SDS011;5595;50.186;8.468;2024-02-04T12:25:41;0.00;;;0.00;;
11082;SDS011;5595;50.186;8.468;2024-02-04T12:28:08;0.00;;;0.00;;
11082;SDS011;5595;50.186;8.468;2024-02-04T12:30:35;0.00;;;0.00;;
11082;SDS011;5595;50.186;8.468;2024-02-04T12:33:02;0.00;;;0.00;;
11082;SDS011;5595;50.186;8.468;2024-02-04T12:35:30;0.00;;;0.00;;
11082;SDS011;5595;50.186;8.468;2024-02-04T12:37:59;0.00;;;0.00;;
11082;SDS011;5595;50.186;8.468;2024-02-04T12:40:27;0.15;;;0.00;;
11082;SDS011;5595;50.186;8.468;2024-02-04T12:42:55;0.00;;;0.00;;
11082;SDS011;5595;50.186;8.468;2024-02-04T12:45:22;1.15;;;0.00;;
11082;SDS011;5595;50.186;8.468;2024-02-04T12:47:50;0.00;;;0.00;;
11082;SDS011;5595;50.186;8.468;2024-02-04T12:50:17;0.00;;;0.00;;
11082;SDS011;5595;50.186;8.468;2024-02-04T12:52:44;0.00;;;0.00;;
11082;SDS011;5595;50.186;8.468;2024-02-04T12:55:24;0.13;;;0.00;;
11082;SDS011;5595;50.186;8.468;2024-02-04T12:58:01;0.00;;;0.00;;
11082;SDS011;5595;50.186;8.468;2024-02-04T13:00:29;0.00;;;0.00;;
11082;SDS011;5595;50.186;8.468;2024-02-04T13:02:57;0.00;;;0.00;;
11082;SDS011;5595;50.186;8.468;2024-02-04T13:05:24;0.00;;;0.00;;
11082;SDS011;5595;50.186;8.468;2024-02-04T13:07:52;0.00;;;0.00;;
11082;SDS011;5595;50.186;8.468;2024-02-04T13:10:23;0.10;;;0.10;;
11082;SDS011;5595;50.186;8.468;2024-02-04T13:13:00;0.00;;;0.00;;
11082;SDS011;5595;50.186;8.468;2024-02-04T13:15:27;0.20;;;0.10;;
11082;SDS011;5595;50.186;8.468;2024-02-04T13:17:55;0.20;;;0.00;;
11082;SDS011;5595;50.186;8.468;2024-02-04T13:20:22;0.00;;;0.00;;
11082;SDS011;5595;50.186;8.468;2024-02-04T13:22:49;0.10;;;0.00;;
11082;SDS011;5595;50.186;8.468;2024-02-04T13:25:18;0.00;;;0.00;;
11082;SDS011;5595;50.186;8.468;2024-02-04T13:27:46;0.00;;;0.00;;
11082;SDS011;5595;50.186;8.468;2024-02-04T13:30:13;2.13;;;0.03;;
11082;SDS011;5595;50.186;8.468;2024-02-04T13:32:41;0.00;;;0.00;;
11082;SDS011;5595;50.186;8.468;2024-02-04T13:35:08;0.00;;;0.00;;
11082;SDS011;5595;50.186;8.468;2024-02-04T13:37:37;0.00;;;0.00;;
11082;SDS011;5595;50.186;8.468;2024-02-04T13:40:06;0.00;;;0.00;;
11082;SDS011;5595;50.186;8.468;2024-02-04T13:42:37;0.00;;;0.00;;
11082;SDS011;5595;50.186;8.468;2024-02-04T13:45:05;0.40;;;0.00;;
11082;SDS011;5595;50.186;8.468;2024-02-04T13:47:33;0.08;;;0.00;;
11082;SDS011;5595;50.186;8.468;2024-02-04T13:50:00;0.00;;;0.00;;
11082;SDS011;5595;50.186;8.468;2024-02-04T13:52:28;0.00;;;0.00;;
11082;SDS011;5595;50.186;8.468;2024-02-04T13:54:54;0.00;;;0.00;;
11082;SDS011;5595;50.186;8.468;2024-02-04T13:57:21;2.53;;;0.10;;
11082;SDS011;5595;50.186;8.468;2024-02-04T13:59:48;0.00;;;0.00;;
11082;SDS011;5595;50.186;8.468;2024-02-04T14:02:17;0.00;;;0.00;;
11082;SDS011;5595;50.186;8.468;2024-02-04T14:04:43;0.00;;;0.00;;
11082;SDS011;5595;50.186;8.468;2024-02-04T14:07:13;0.00;;;0.00;;
11082;SDS011;5595;50.186;8.468;2024-02-04T14:09:40;0.00;;;0.00;;
11082;SDS011;5595;50.186;8.468;2024-02-04T14:12:06;0.00;;;0.00;;
11082;SDS011;5595;50.186;8.468;2024-02-04T14:14:34;0.00;;;0.00;;
11082;SDS011;5595;50.186;8.468;2024-02-04T14:17:00;0.00;;;0.00;;
11082;SDS011;5595;50.186;8.468;2024-02-04T14:19:29;0.00;;;0.00;;
11082;SDS011;5595;50.186;8.468;2024-02-04T14:21:55;0.00;;;0.00;;
11082;SDS011;5595;50.186;8.468;2024-02-04T14:24:22;0.00;;;0.00;;
11082;SDS011;5595;50.186;8.468;2024-02-04T14:26:55;0.00;;;0.00;;
11082;SDS011;5595;50.186;8.468;2024-02-04T14:29:22;0.00;;;0.00;;
11082;SDS011;5595;50.186;8.468;2024-02-04T14:31:49;0.08;;;0.03;;
11082;SDS011;5595;50.186;8.468;2024-02-04T14:34:16;0.00;;;0.00;;
11082;SDS011;5595;50.186;8.468;2024-02-04T14:36:44;0.25;;;0.10;;
11082;SDS011;5595;50.186;8.468;2024-02-04T14:39:11;0.13;;;0.00;;
11082;SDS011;5595;50.186;8.468;2024-02-04T14:41:37;0.20;;;0.00;;
11082;SDS011;5595;50.186;8.468;2024-02-04T14:44:04;2.15;;;0.20;;
11082;SDS011;5595;50.186;8.468;2024-02-04T14:46:31;0.00;;;0.00;;
11082;SDS011;5595;50.186;8.468;2024-02-04T14:48:58;0.10;;;0.00;;
11082;SDS011;5595;50.186;8.468;2024-02-04T14:51:25;0.00;;;0.00;;
11082;SDS011;5595;50.186;8.468;2024-02-04T14:53:54;0.00;;;0.00;;
11082;SDS011;5595;50.186;8.468;2024-02-04T14:56:21;0.32;;;0.10;;
11082;SDS011;5595;50.186;8.468;2024-02-04T14:58:48;0.10;;;0.08;;
11082;SDS011;5595;50.186;8.468;2024-02-04T15:01:15;0.10;;;0.00;;
11082;SDS011;5595;50.186;8.468;2024-02-04T15:03:42;0.00;;;0.00;;